Relevés horaires Koksijde (Belgique)


Relevés horaires à Koksijde - Mercredi 24 Mai 2023
Heure UTC1 Température [°C] Vent [km/h] Hum. [%] Pres.4 [hPa] Visi. [Km] Nébu. [octa] Préc.5 [mm] Cond.
2m. Res. Ros. Dir.2 Vit. Moy. Raf.3
23:00 11.6 11.4 9.1 NE 5.6 -- 11.1 85 1026.2(1.0/3h) 18 -- -- --
22:00 11.5 10.9 8.8 NE 7.4 -- 11.1 83 1025.9(0.9/3h) 19 -- -- --
21:00 11.5 10.9 8.2 NE 7.4 -- 11.1 80 1025.5(0.7/3h) 20 1/8 -- --
20:00 12.2 11.7 7.7 NE 7.4 -- 11.1 74 1025.2(0.5/3h) 20 1/8 -- --
19:00 12.8 12.4 8.1 NNE 7.4 -- 11.1 73 1024.9(0.0/3h) 20 -- -- --
18:00 13.9 13.4 9.8 NNE 9.3 -- 13.0 76 1024.7(-0.1/3h) 20 -- trace/12h
--
17:00 14.4 14.3 9.1 N 7.4 -- 13.0 70 1024.5(-0.4/3h) 20 -- -- --
16:00 15.0 15 9.8 NNO 7.4 -- 11.1 71 1024.7(-0.3/3h) 20 3/8 -- --
15:00 15.1 15.1 9.2 NNO 5.6 -- 11.1 68 1024.9(-0.4/3h) 20 3/8 -- --
14:00 14.5 14.4 9.1 NO 7.4 -- 11.1 70 1025(-0.4/3h) 20 3/8 -- --
13:00 14.9 14.9 8.3 NO 7.4 -- 11.1 65 1025.2(-0.3/3h) 20 3/8 -- --
12:00 15.2 15.2 6.6 NO 5.6 -- 9.3 56 1025.2(-0.3/3h) 20 3/8 trace/6h
--
11:00 15.6 15.6 3.2 NO 5.6 5.6 9.3 43 1025.4(-0.2/3h) 20 3/8 -- --
10:00 15.8 15.8 2.5 NNO 1.9 -- 9.3 41 1025.5(-0.2/3h) 20 3/8 -- --
09:00 13.5 13.5 7.0 NO 3.7 -- 7.4 65 1025.7(0.1/3h) 20 3/8 -- --
08:00 12.7 12.7 8.3 ONO 3.7 -- 5.6 75 1025.7(0.0/3h) 20 4/8 -- --
07:00 10.8 10.8 8.7 NNO 1.9 -- 3.7 87 1025.7(0.4/3h) 15 5/8 -- --
06:00 9.3 9.3 7.8 NNO 1.9 -- 5.6 90 1025.5(-0.2/3h) 12 5/8 -- --
05:00 5.7 5.7 5.1 O 3.7 -- 5.6 96 1025.7(-0.1/3h) 12 5/8 -- --
04:00 4.7 4.7 4.2 NNO 1.9 -- 1.9 97 1025.2(-0.6/3h) 10 -- -- --
03:00 5.0 5.0 4.4 NNO 1.9 -- 1.9 96 1025.7(-0.3/3h) 11 -- -- --
02:00 5.6 5.6 4.9 NNO 1.9 -- 1.9 95 1025.9(-0.4/3h) 14 -- -- --
01:00 6.4 6.4 5.5 NNO 1.9 -- 1.9 94 1025.9(-0.4/3h) 15 -- -- --
00:00 7.5 7.5 5.9 NNO 1.9 -- 16.7 90 1026(-0.3/3h) 19 -- -- --

1 Coordinated Universal Time. Actuellement il est 17:00 locale et 15:00 UTC.

2 Le vent souffle depuis la direction indiquée vers la direction oposée.

3 Les rafales max. sont disponible 40 min après l'heure du relevé.

4 Pour les stations d'altitude (plus de 600m) le géopotentiel du niveau le plus proche de la pression obligatoire est indiqué.

5 Les stations disposant d'un diffuseur peuvent indiquer "trace". Cela signifie que des précipitations ont touchés le sol mais que la quantité est inférieure à 0.1 mm.

Récapitulatif de la journée
Température [°C] Vent [km/h] Ensoleillement4 [h] Precipitations totale5 [mm] Pression [Hpa]
Min1 Max.2 Moy.3 Max. Min Max.
4.3 16.5 5.6 16.7 0 h 0 min 0 1024.5 1026.2

1 Température minimale relevée entre 18:00 UTC la veille et 18:00 UTC le jour donné.

2 Température maximale relevée entre 06:00 UTC le jour donné et 06:00 UTC le lendemain.

3 Vent moyen de la journée basé sur les relevés horaires.

4 Ensoleillement en heures relevé entre 06:00 UTC la veille et 06:00 UTC le jour donné.

5 Précipitations totales tombées entre 06:00 UTC la jour donné et 06:00 UTC le lendemain.

Graphiques horaires